Cache Junction, UT (84304)

7:44 AM MST on November 23, 2014 (GMT -0700)
Newton So. - Dyacon.com | Change Station
CLOSE
Current Station
Personal Weather Station
Location: Newton, UT
Elevation: 4488 ft
Nearby Weather Stations

Elev 4488 ft 41.86 °N, 111.99 °W | Updated 4 minutes ago

Overcast
Overcast
32.7 °F
Feels Like 27 °F
N
5.6
Wind Variable Wind from NW

Today
High -- | Low -- °F
--% Chance of Precip.
Yesterday
High -- | Low -- °F
Precip. -- in
7:27 AM 5:01 PM
New Moon, 1% visible
Pressure 30.09 in
Visibility 3.0 miles
Clouds Few 1700 ft
Scattered Clouds 2300 ft
Overcast 3200 ft
Windchill 27 °F
Dew Point 25 °F
Humidity 73%
Rainfall 0.00 in
Snow Depth Not available.
UV 0 out of 12
Pollen .10 out of 12
Air Quality Not available.
Flu Activity Not available.
SPECI KLGU 231351Z AUTO 14005KT 3SM -SN BR FEW017 SCT023 OVC032 M01/M02 A3009 RMK AO2 P0000 T10061017

More Conditions Fewer Conditions

Pressure 30.09 in
Visibility 3.0 miles
Clouds Few 1700 ft
Scattered Clouds 2300 ft
Overcast 3200 ft
Windchill 27 °F
Dew Point 25 °F
Humidity 73%
Rainfall 0.00 in
Snow Depth Not available.
UV 0 out of 12
Pollen .10 out of 12
Air Quality Not available.
Flu Activity Not available.
SPECI KLGU 231351Z AUTO 14005KT 3SM -SN BR FEW017 SCT023 OVC032 M01/M02 A3009 RMK AO2 P0000 T10061017

More Conditions Fewer Conditions

10-Day Weather Forecast

Almanac

Astronomy

Nov. 23, 2014 Rise Set
Actual Time
Civil Twilight
Nautical Twilight
Astronomical Twilight
Moon
Length of Visible Light
Length of Day
Tomorrow will be .
, % of the Moon is Illuminated

Today's Extremes

State Highs State Lows

Community

WunderPhotos

Upload Photos

1,773,078 photos uploaded!

WunderBlogs® & News

Nearby

Air Quality

  Air Quality AQ Index Pollutant
Not available.

Snow Depth

Station Depth Elevation

Earthquake Activity

City Distance Mag. Time & Date
Minimum magnitude displayed is 2.5.

Coastal Water Temperatures

Place Temperature

Nearby Weather Stations